Time;durP1;ratioP1;P1;durP2;ratioP2;P2;SDS_P1;SDS_P2;PMS_P1;PMS_P2;Temp;Humidity;BMP_temperature;BMP_pressure;BME280_temperature;BME280_humidity;BME280_pressure;Samples;Min_cycle;Max_cycle;Signal;HPM_P1;HPM_P2
2022/11/19 00:02:03;;;;;;;1.40;1.20;;;8.50;98.00;;;;;;5115053;28;20461;-63
2022/11/19 00:04:30;;;;;;;1.20;1.00;;;8.60;98.00;;;;;;5113992;28;20869;-63
2022/11/19 00:06:58;;;;;;;1.40;1.10;;;8.50;98.00;;;;;;5114610;28;20929;-63
2022/11/19 00:09:25;;;;;;;1.93;1.20;;;8.40;98.00;;;;;;5114851;28;20543;-63
2022/11/19 00:14:38;;;;;;;1.20;1.10;;;8.30;98.00;;;;;;5114794;28;21174;-63
2022/11/19 00:17:05;;;;;;;1.20;1.10;;;8.30;98.00;;;;;;5114637;28;20451;-63
2022/11/19 00:19:32;;;;;;;1.30;1.10;;;8.20;98.00;;;;;;5114889;28;20829;-63
2022/11/19 00:21:59;;;;;;;1.40;1.10;;;8.30;98.00;;;;;;5113444;28;20511;-63
2022/11/19 00:24:27;;;;;;;1.20;1.00;;;8.30;98.00;;;;;;5114703;28;20457;-63
2022/11/19 00:26:56;;;;;;;1.37;1.20;;;8.40;98.00;;;;;;5114566;28;20843;-63
2022/11/19 00:29:23;;;;;;;1.20;1.00;;;8.50;98.00;;;;;;5114598;28;20503;-63
2022/11/19 00:31:50;;;;;;;1.20;1.03;;;8.70;98.00;;;;;;5114456;28;20466;-63
2022/11/19 00:34:17;;;;;;;1.33;1.00;;;8.80;98.00;;;;;;5114391;27;20486;-63
2022/11/19 00:36:45;;;;;;;1.30;1.10;;;8.80;98.00;;;;;;5114541;28;20447;-63
2022/11/19 00:39:12;;;;;;;1.40;1.20;;;8.80;98.00;;;;;;5114562;28;20462;-63
2022/11/19 00:41:39;;;;;;;3.20;1.30;;;8.80;98.00;;;;;;5114637;28;20821;-63
2022/11/19 00:44:08;;;;;;;1.40;1.30;;;8.60;98.00;;;;;;5114457;28;20941;-63
2022/11/19 00:46:35;;;;;;;1.20;1.00;;;8.50;98.00;;;;;;5114488;28;20455;-63
2022/11/19 00:49:03;;;;;;;3.40;1.10;;;8.50;98.00;;;;;;5114418;28;20936;-63
2022/11/19 00:51:31;;;;;;;1.30;1.10;;;8.40;98.00;;;;;;5114539;28;20476;-63
2022/11/19 00:53:58;;;;;;;2.53;1.47;;;8.40;98.00;;;;;;5113743;27;20477;-63
2022/11/19 00:56:27;;;;;;;1.30;1.17;;;8.40;98.00;;;;;;5114145;27;20454;-63
2022/11/19 00:58:55;;;;;;;1.57;1.10;;;8.30;98.00;;;;;;5113822;28;20856;-63
2022/11/19 01:01:25;;;;;;;1.40;1.30;;;8.30;98.00;;;;;;5113934;28;20449;-63
2022/11/19 01:03:52;;;;;;;1.50;1.03;;;8.30;98.00;;;;;;5113688;28;20501;-63
2022/11/19 01:06:23;;;;;;;2.07;1.50;;;8.30;98.00;;;;;;5113927;28;20472;-63
2022/11/19 01:08:53;;;;;;;1.70;1.10;;;8.30;98.00;;;;;;5113741;28;20454;-63
2022/11/19 01:11:23;;;;;;;1.40;1.20;;;8.20;98.00;;;;;;5113759;28;20449;-63
2022/11/19 01:13:50;;;;;;;1.53;1.10;;;8.30;98.00;;;;;;5113545;28;20485;-63
2022/11/19 01:16:21;;;;;;;1.93;1.10;;;8.30;98.00;;;;;;5112867;28;20855;-63
2022/11/19 01:18:50;;;;;;;9.33;1.50;;;8.50;98.00;;;;;;5113581;28;20453;-63
2022/11/19 01:21:19;;;;;;;2.10;1.53;;;8.50;98.00;;;;;;5113586;28;20454;-63
2022/11/19 01:23:47;;;;;;;1.20;1.00;;;8.40;98.00;;;;;;5112165;28;21022;-63
2022/11/19 01:26:15;;;;;;;1.90;1.30;;;8.40;98.00;;;;;;5113476;28;20518;-63
2022/11/19 01:28:44;;;;;;;1.20;1.10;;;8.40;98.00;;;;;;5113532;28;20944;-63
2022/11/19 01:31:12;;;;;;;2.13;1.20;;;8.50;98.00;;;;;;5113425;28;20959;-63
2022/11/19 01:33:40;;;;;;;1.40;1.10;;;8.60;98.00;;;;;;5112263;28;20456;-63
2022/11/19 01:36:11;;;;;;;1.30;1.13;;;8.50;98.00;;;;;;5113373;27;20516;-63
2022/11/19 01:38:39;;;;;;;2.80;1.30;;;8.50;98.00;;;;;;5113637;28;20460;-63
2022/11/19 01:41:06;;;;;;;1.53;1.20;;;8.30;98.00;;;;;;5113570;28;20458;-63
2022/11/19 01:43:42;;;;;;;1.20;1.10;;;8.30;98.00;;;;;;5113466;28;20464;-63
2022/11/19 01:46:10;;;;;;;2.37;1.60;;;8.30;98.00;;;;;;5113232;28;20488;-63
2022/11/19 01:48:44;;;;;;;3.80;1.70;;;8.30;98.00;;;;;;5113057;28;20475;-63
2022/11/19 01:51:16;;;;;;;1.57;1.23;;;8.30;98.00;;;;;;5112946;27;20469;-63
2022/11/19 01:53:45;;;;;;;2.13;1.63;;;8.30;98.00;;;;;;5112842;28;21166;-63
2022/11/19 01:56:13;;;;;;;1.40;1.20;;;8.30;98.00;;;;;;5112777;28;20462;-63
2022/11/19 01:58:44;;;;;;;2.87;1.30;;;8.30;98.00;;;;;;5112733;28;20458;-63
2022/11/19 02:01:11;;;;;;;1.60;1.40;;;8.40;98.00;;;;;;5112803;28;20457;-63
2022/11/19 02:03:39;;;;;;;1.60;1.10;;;8.30;98.00;;;;;;5112687;28;20602;-63
2022/11/19 02:06:08;;;;;;;1.50;1.40;;;8.40;98.00;;;;;;5112737;28;20539;-63
2022/11/19 02:08:40;;;;;;;2.37;1.23;;;8.60;98.00;;;;;;5111478;28;20497;-63
2022/11/19 02:11:52;;;;;;;2.27;1.27;;;8.60;98.00;;;;;;5112696;28;20465;-63
2022/11/19 02:14:38;;;;;;;1.40;1.30;;;8.80;98.00;;;;;;5112619;28;20497;-63
2022/11/19 02:17:16;;;;;;;2.60;1.27;;;8.70;98.00;;;;;;5112691;28;20462;-63
2022/11/19 02:20:18;;;;;;;1.80;1.30;;;8.60;98.00;;;;;;5112551;28;20460;-63
2022/11/19 02:23:25;;;;;;;1.97;1.40;;;8.50;98.00;;;;;;5108528;28;20457;-63
2022/11/19 02:26:30;;;;;;;1.30;1.30;;;8.60;98.00;;;;;;5112491;28;20493;-63
2022/11/19 02:29:10;;;;;;;2.07;1.20;;;8.40;98.00;;;;;;5112578;28;20462;-63
2022/11/19 02:31:43;;;;;;;1.70;1.17;;;8.50;98.00;;;;;;5112483;28;20462;-63
2022/11/19 02:34:16;;;;;;;1.83;1.30;;;8.50;98.00;;;;;;5112472;28;20475;-63
2022/11/19 02:36:50;;;;;;;1.60;1.40;;;8.60;98.00;;;;;;5112699;28;20517;-63
2022/11/19 02:39:23;;;;;;;2.63;1.40;;;8.50;98.00;;;;;;5112376;28;20939;-63
2022/11/19 02:41:55;;;;;;;1.30;1.10;;;8.40;98.00;;;;;;5112380;28;20454;-63
2022/11/19 02:47:17;;;;;;;1.30;1.20;;;8.30;98.00;;;;;;5112433;28;20447;-63
2022/11/19 02:49:45;;;;;;;1.93;1.67;;;8.30;98.00;;;;;;5112174;28;20462;-63
2022/11/19 02:52:14;;;;;;;1.30;1.10;;;8.30;98.00;;;;;;5112173;28;20458;-63
2022/11/19 02:54:41;;;;;;;1.30;1.13;;;8.40;98.00;;;;;;5112167;28;20535;-63
2022/11/19 02:57:10;;;;;;;1.20;1.10;;;8.60;98.00;;;;;;5111992;28;20469;-63
2022/11/19 03:05:31;;;;;;;1.67;1.30;;;8.70;98.00;;;;;;5112127;28;20437;-63
2022/11/19 03:07:58;;;;;;;1.47;1.10;;;8.70;98.00;;;;;;5112082;28;20482;-63
2022/11/19 03:10:31;;;;;;;1.53;1.20;;;8.70;98.00;;;;;;5112142;28;20476;-63
2022/11/19 03:16:40;;;;;;;2.10;1.23;;;8.70;98.00;;;;;;5112157;28;20462;-63
2022/11/19 03:18:48;;;;;;;1.37;1.27;;;8.70;98.00;;;;;;5111992;28;21000;-63
2022/11/19 03:21:21;;;;;;;2.47;1.30;;;8.80;98.00;;;;;;5112209;28;21100;-63
2022/11/19 03:23:53;;;;;;;1.37;1.10;;;8.70;98.00;;;;;;5112111;28;20928;-63
2022/11/19 03:26:27;;;;;;;1.77;1.20;;;8.60;98.00;;;;;;5112233;28;20460;-63
2022/11/19 03:28:56;;;;;;;1.30;1.10;;;8.50;98.00;;;;;;5112110;28;20864;-63
2022/11/19 03:31:26;;;;;;;1.20;1.00;;;8.40;98.00;;;;;;5111904;28;20464;-63
2022/11/19 03:33:58;;;;;;;1.30;1.10;;;8.40;98.00;;;;;;5111690;28;20963;-63
2022/11/19 03:36:31;;;;;;;1.37;1.10;;;8.40;98.00;;;;;;5112041;28;20492;-63
2022/11/19 03:39:02;;;;;;;2.07;1.50;;;8.30;98.00;;;;;;5111356;28;20499;-63
2022/11/19 03:41:30;;;;;;;1.30;1.20;;;8.30;98.00;;;;;;5115696;28;20458;-63
2022/11/19 03:44:02;;;;;;;1.73;1.20;;;8.30;98.00;;;;;;5115324;28;20844;-63
2022/11/19 03:46:33;;;;;;;1.30;1.30;;;8.30;98.00;;;;;;5115537;28;20551;-63
2022/11/19 03:49:04;;;;;;;2.70;1.30;;;8.50;98.00;;;;;;5115280;28;20488;-63
2022/11/19 03:51:40;;;;;;;2.13;1.40;;;8.50;98.00;;;;;;5115327;28;20848;-63
2022/11/19 03:54:10;;;;;;;2.50;1.30;;;8.50;98.00;;;;;;5115309;28;20471;-63
2022/11/19 03:56:40;;;;;;;1.63;1.33;;;8.60;98.00;;;;;;5115209;27;20875;-63
2022/11/19 03:59:09;;;;;;;1.50;1.20;;;8.50;98.00;;;;;;5115184;27;20463;-63
2022/11/19 04:01:37;;;;;;;1.93;1.30;;;8.50;98.00;;;;;;5115127;28;20465;-63
2022/11/19 04:06:50;;;;;;;2.30;1.67;;;8.40;98.00;;;;;;5115202;28;20835;-63
2022/11/19 04:09:19;;;;;;;2.27;1.57;;;8.30;98.00;;;;;;5115102;28;20526;-63
2022/11/19 04:11:46;;;;;;;1.50;1.10;;;8.20;98.00;;;;;;5114918;28;20453;-63
2022/11/19 04:14:13;;;;;;;2.03;1.30;;;8.10;98.00;;;;;;5114874;27;20462;-63
2022/11/19 04:16:42;;;;;;;1.90;1.40;;;8.20;98.00;;;;;;5114966;28;20501;-63
2022/11/19 04:19:11;;;;;;;1.80;1.30;;;8.20;98.00;;;;;;5113520;28;20458;-63
2022/11/19 04:21:38;;;;;;;1.70;1.30;;;8.40;98.00;;;;;;5114456;28;20951;-63
2022/11/19 04:24:06;;;;;;;2.40;1.50;;;8.30;98.00;;;;;;5114276;28;20462;-63
2022/11/19 04:26:35;;;;;;;1.20;1.10;;;8.30;98.00;;;;;;5114615;28;20477;-63
2022/11/19 04:29:02;;;;;;;1.33;1.10;;;8.40;98.00;;;;;;5114408;28;20455;-63
2022/11/19 04:31:29;;;;;;;1.20;1.10;;;8.40;98.00;;;;;;5114357;28;20468;-63
2022/11/19 04:33:56;;;;;;;1.30;1.20;;;8.30;98.00;;;;;;5114398;28;20492;-63
2022/11/19 04:36:24;;;;;;;1.30;1.13;;;8.20;98.00;;;;;;5114464;28;20493;-63
2022/11/19 04:38:51;;;;;;;2.07;1.23;;;8.20;98.00;;;;;;5114269;28;20501;-63
2022/11/19 04:41:19;;;;;;;1.53;1.33;;;8.30;98.00;;;;;;5114216;28;20974;-63
2022/11/19 04:43:46;;;;;;;1.20;1.20;;;8.40;98.00;;;;;;5114308;28;20513;-63
2022/11/19 04:46:13;;;;;;;2.07;1.30;;;8.60;98.00;;;;;;5114315;27;20512;-63
2022/11/19 04:48:43;;;;;;;1.50;1.10;;;8.70;98.00;;;;;;5114314;28;20457;-63
2022/11/19 04:51:10;;;;;;;1.63;1.20;;;8.70;98.00;;;;;;5114343;28;21121;-63
2022/11/19 04:53:39;;;;;;;1.80;1.43;;;8.70;98.00;;;;;;5114211;28;20470;-63
2022/11/19 04:56:06;;;;;;;1.53;1.10;;;8.70;98.00;;;;;;5114187;28;20487;-63
2022/11/19 04:58:34;;;;;;;1.27;1.27;;;8.70;98.00;;;;;;5112996;28;20469;-63
2022/11/19 05:01:00;;;;;;;2.53;1.60;;;8.60;98.00;;;;;;5114073;28;20458;-63
2022/11/19 05:03:28;;;;;;;1.47;1.23;;;8.50;98.00;;;;;;5113668;28;20487;-63
2022/11/19 05:05:55;;;;;;;1.93;1.30;;;8.50;98.00;;;;;;5114085;28;20487;-63
2022/11/19 05:08:22;;;;;;;1.57;1.20;;;8.50;98.00;;;;;;5113976;28;20463;-63
2022/11/19 05:10:51;;;;;;;1.77;1.30;;;8.50;98.00;;;;;;5113969;28;20813;-63
2022/11/19 05:13:18;;;;;;;1.73;1.20;;;8.50;98.00;;;;;;5113651;28;20445;-63
2022/11/19 05:15:45;;;;;;;1.27;1.17;;;8.50;98.00;;;;;;5113125;28;20485;-63
2022/11/19 05:18:16;;;;;;;1.60;1.20;;;8.60;98.00;;;;;;5113464;28;20468;-63
2022/11/19 05:20:43;;;;;;;1.40;1.30;;;8.70;98.00;;;;;;5113221;28;20494;-63
2022/11/19 05:23:10;;;;;;;1.70;1.20;;;8.70;98.00;;;;;;5113394;28;20458;-63
2022/11/19 05:25:37;;;;;;;1.20;1.10;;;8.70;98.00;;;;;;5113473;28;20466;-63
2022/11/19 05:28:06;;;;;;;1.20;1.10;;;8.70;98.00;;;;;;5112210;28;20470;-63
2022/11/19 05:30:33;;;;;;;1.40;1.20;;;8.80;98.00;;;;;;5113209;28;20459;-63
2022/11/19 05:33:00;;;;;;;1.40;1.10;;;8.80;98.00;;;;;;5113163;28;20466;-63
2022/11/19 05:35:27;;;;;;;1.63;1.50;;;8.80;98.00;;;;;;5113091;28;20489;-63
2022/11/19 05:37:56;;;;;;;1.20;1.07;;;8.80;98.00;;;;;;5113118;28;20457;-63
2022/11/19 05:40:23;;;;;;;1.60;1.20;;;8.80;98.00;;;;;;5113075;28;20459;-63
2022/11/19 05:42:50;;;;;;;2.67;1.33;;;8.70;98.00;;;;;;5113170;28;20465;-63
2022/11/19 05:45:20;;;;;;;1.77;1.20;;;8.70;98.00;;;;;;5113040;28;20476;-63
2022/11/19 05:47:48;;;;;;;1.80;1.20;;;8.70;98.00;;;;;;5112955;28;20557;-63
2022/11/19 05:50:15;;;;;;;1.20;1.10;;;8.70;98.00;;;;;;5113138;28;20483;-63
2022/11/19 05:52:42;;;;;;;1.30;1.10;;;8.70;98.00;;;;;;5113170;28;20455;-63
2022/11/19 05:55:09;;;;;;;1.47;1.30;;;8.70;98.00;;;;;;5112935;28;20474;-63
2022/11/19 05:57:36;;;;;;;1.70;1.40;;;8.70;98.00;;;;;;5113174;28;20966;-63
2022/11/19 06:00:04;;;;;;;1.53;1.33;;;8.70;98.00;;;;;;5112709;28;20459;-63
2022/11/19 06:02:34;;;;;;;1.93;1.40;;;8.60;98.00;;;;;;5112355;28;20507;-63
2022/11/19 06:05:02;;;;;;;1.93;1.40;;;8.70;98.00;;;;;;5112325;28;20460;-63
2022/11/19 06:07:29;;;;;;;1.40;1.27;;;8.70;98.00;;;;;;5113005;28;20453;-63
2022/11/19 06:09:56;;;;;;;2.60;1.70;;;8.80;98.00;;;;;;5112670;28;20877;-63
2022/11/19 06:12:23;;;;;;;1.67;1.30;;;8.70;98.00;;;;;;5111180;28;20450;-63
2022/11/19 06:14:50;;;;;;;1.37;1.23;;;8.60;98.00;;;;;;5112275;28;20931;-63
2022/11/19 06:17:17;;;;;;;1.30;1.20;;;8.50;98.00;;;;;;5112632;28;20479;-63
2022/11/19 06:19:45;;;;;;;1.30;1.27;;;8.40;98.00;;;;;;5112396;28;20471;-63
2022/11/19 06:22:12;;;;;;;1.33;1.33;;;8.40;98.00;;;;;;5112555;28;20462;-63
2022/11/19 06:24:40;;;;;;;2.83;1.53;;;8.40;98.00;;;;;;5112426;28;20574;-63
2022/11/19 06:27:07;;;;;;;2.50;1.20;;;8.50;98.00;;;;;;5111210;28;20458;-63
2022/11/19 06:29:34;;;;;;;1.53;1.33;;;8.50;98.00;;;;;;5112243;28;20461;-63
2022/11/19 06:32:01;;;;;;;1.50;1.20;;;8.60;98.00;;;;;;5112341;28;20459;-63
2022/11/19 06:34:28;;;;;;;6.10;1.43;;;8.80;98.00;;;;;;5112523;28;20533;-63
2022/11/19 06:36:57;;;;;;;2.47;1.37;;;8.90;98.00;;;;;;5112271;28;20485;-63
2022/11/19 06:39:24;;;;;;;1.73;1.30;;;8.90;98.00;;;;;;5112465;28;20545;-63
2022/11/19 06:41:52;;;;;;;2.93;1.67;;;8.80;98.00;;;;;;5112243;28;21139;-63
2022/11/19 06:44:19;;;;;;;4.93;1.40;;;8.60;98.00;;;;;;5111821;28;20477;-63
2022/11/19 06:46:46;;;;;;;1.33;1.20;;;8.50;98.00;;;;;;5112386;28;20466;-63
2022/11/19 06:49:13;;;;;;;1.70;1.40;;;8.40;98.00;;;;;;5112324;28;20458;-63
2022/11/19 06:51:40;;;;;;;2.10;1.43;;;8.40;98.00;;;;;;5111218;28;20451;-63
2022/11/19 06:54:10;;;;;;;1.70;1.20;;;8.50;98.00;;;;;;5112284;28;20462;-63
2022/11/19 06:56:37;;;;;;;1.87;1.30;;;8.40;98.00;;;;;;5112229;28;20490;-63
2022/11/19 06:59:04;;;;;;;1.73;1.53;;;8.30;98.00;;;;;;5111209;28;20465;-63
2022/11/19 07:01:31;;;;;;;1.27;1.23;;;8.20;98.00;;;;;;5112270;28;20474;-63
2022/11/19 07:03:58;;;;;;;1.70;1.30;;;8.30;98.00;;;;;;5112168;28;21018;-63
2022/11/19 07:06:25;;;;;;;1.23;1.10;;;8.20;98.00;;;;;;5112202;28;20477;-63
2022/11/19 07:08:52;;;;;;;2.03;1.10;;;8.20;98.00;;;;;;5111924;28;20518;-63
2022/11/19 07:11:26;;;;;;;1.67;1.43;;;8.20;98.00;;;;;;5112170;28;20882;-63
2022/11/19 07:13:58;;;;;;;2.53;1.57;;;8.30;98.00;;;;;;5112636;28;20455;-63
2022/11/19 07:16:27;;;;;;;1.10;1.00;;;8.40;98.00;;;;;;5116196;28;20541;-63
2022/11/19 07:18:54;;;;;;;1.60;1.20;;;8.50;98.00;;;;;;5114591;28;20849;-63
2022/11/19 07:21:21;;;;;;;1.77;1.37;;;8.60;98.00;;;;;;5115990;28;20785;-63
2022/11/19 07:23:48;;;;;;;1.40;1.20;;;8.70;98.00;;;;;;5114444;28;20454;-63
2022/11/19 07:26:15;;;;;;;2.40;1.40;;;8.80;98.00;;;;;;5115910;28;20944;-63
2022/11/19 07:28:44;;;;;;;1.50;1.20;;;8.80;98.00;;;;;;5115890;27;20826;-63
2022/11/19 07:31:11;;;;;;;1.70;1.40;;;8.90;98.00;;;;;;5115626;28;20462;-63
2022/11/19 07:33:38;;;;;;;2.07;1.77;;;8.90;98.00;;;;;;5115687;28;20465;-63
2022/11/19 07:36:07;;;;;;;1.20;1.10;;;9.00;98.00;;;;;;5115535;28;20488;-63
2022/11/19 07:38:36;;;;;;;2.00;1.50;;;8.90;98.00;;;;;;5115648;28;20534;-63
2022/11/19 07:42:47;;;;;;;1.67;1.20;;;8.80;98.00;;;;;;5115593;28;20479;-63
2022/11/19 07:43:53;;;;;;;1.80;1.57;;;8.70;98.00;;;;;;5115261;28;20540;-63
2022/11/19 07:46:20;;;;;;;1.70;1.20;;;8.60;98.00;;;;;;5115586;28;20455;-63
2022/11/19 07:48:47;;;;;;;1.47;1.43;;;8.50;98.00;;;;;;5115501;28;20464;-63
2022/11/19 07:51:14;;;;;;;4.17;1.50;;;8.50;98.00;;;;;;5115605;28;20468;-63
2022/11/19 07:53:42;;;;;;;1.27;1.13;;;8.50;98.00;;;;;;5114231;28;20454;-64
2022/11/19 07:56:11;;;;;;;1.33;1.30;;;8.50;98.00;;;;;;5115566;28;20510;-63
2022/11/19 07:58:38;;;;;;;1.63;1.33;;;8.50;98.00;;;;;;5115356;27;20958;-63
2022/11/19 08:01:13;;;;;;;1.60;1.23;;;8.50;98.00;;;;;;5114981;28;20466;-63
2022/11/19 08:03:41;;;;;;;1.40;1.33;;;8.50;98.00;;;;;;5115356;28;20839;-63
2022/11/19 08:06:09;;;;;;;2.73;1.43;;;8.50;98.00;;;;;;5114697;28;20868;-65
2022/11/19 08:08:36;;;;;;;1.70;1.30;;;8.70;98.00;;;;;;5094570;28;20488;-63
2022/11/19 08:11:06;;;;;;;2.73;1.40;;;8.80;98.00;;;;;;5092642;28;20455;-63
2022/11/19 08:13:33;;;;;;;3.07;1.40;;;8.80;98.00;;;;;;5094651;28;20463;-63
2022/11/19 08:16:01;;;;;;;2.67;1.43;;;8.90;98.00;;;;;;5094302;28;20483;-64
2022/11/19 08:18:30;;;;;;;1.60;1.40;;;8.80;98.00;;;;;;5094582;28;20835;-63
2022/11/19 08:21:04;;;;;;;1.60;1.10;;;8.80;98.00;;;;;;5094274;28;20468;-63
2022/11/19 08:23:32;;;;;;;1.77;1.40;;;8.90;98.00;;;;;;5094466;28;20538;-63
2022/11/19 08:25:59;;;;;;;1.60;1.40;;;9.00;98.00;;;;;;5093921;28;20521;-63
2022/11/19 08:28:26;;;;;;;2.10;1.53;;;8.90;98.00;;;;;;5094334;28;20455;-63
2022/11/19 08:30:55;;;;;;;1.70;1.30;;;8.80;98.00;;;;;;5085485;28;20475;-64
2022/11/19 08:33:22;;;;;;;1.30;1.20;;;8.90;98.00;;;;;;5077987;28;20953;-63
2022/11/19 08:35:55;;;;;;;1.57;1.30;;;8.90;98.00;;;;;;5095664;28;20497;-60
2022/11/19 08:38:23;;;;;;;2.10;1.70;;;9.00;98.00;;;;;;5095730;28;20521;-60
2022/11/19 08:42:58;;;;;;;1.87;1.40;;;9.00;98.00;;;;;;5093200;28;20463;-60
2022/11/19 08:43:41;;;;;;;1.33;1.30;;;8.90;98.00;;;;;;5113317;28;20467;-61
2022/11/19 08:46:09;;;;;;;1.60;1.27;;;8.80;98.00;;;;;;5113418;28;20462;-61
2022/11/19 08:48:36;;;;;;;1.30;1.20;;;8.90;98.00;;;;;;5113709;28;20462;-61
2022/11/19 08:51:06;;;;;;;1.57;1.27;;;8.90;98.00;;;;;;5112385;28;20443;-60
2022/11/19 08:53:33;;;;;;;1.77;1.40;;;9.00;98.00;;;;;;5113708;28;20459;-60
2022/11/19 08:56:00;;;;;;;1.30;1.03;;;9.00;98.00;;;;;;5113262;28;20828;-60
2022/11/19 08:58:27;;;;;;;1.83;1.23;;;9.10;98.00;;;;;;5113645;28;20451;-60
2022/11/19 09:00:55;;;;;;;1.97;1.10;;;9.10;98.00;;;;;;5111983;28;20971;-60
2022/11/19 09:03:22;;;;;;;1.23;1.00;;;9.10;98.00;;;;;;5113375;28;20455;-61
2022/11/19 09:05:49;;;;;;;2.10;1.37;;;9.20;98.00;;;;;;5113191;28;20454;-60
2022/11/19 09:08:17;;;;;;;1.63;1.30;;;9.30;98.00;;;;;;5113362;28;20458;-60
2022/11/19 09:10:45;;;;;;;1.40;1.30;;;9.30;98.00;;;;;;5113191;28;20960;-61
2022/11/19 09:13:12;;;;;;;2.17;1.40;;;9.40;98.00;;;;;;5113203;28;20463;-61
2022/11/19 09:15:39;;;;;;;1.70;1.23;;;9.40;98.00;;;;;;5111801;28;20510;-60
2022/11/19 09:18:06;;;;;;;1.70;1.23;;;9.40;98.00;;;;;;5113113;28;20490;-60
2022/11/19 09:20:33;;;;;;;1.30;1.20;;;9.40;98.00;;;;;;5113053;28;20949;-61
2022/11/19 09:23:00;;;;;;;2.20;1.60;;;9.40;98.00;;;;;;5111463;28;20459;-60
2022/11/19 09:25:35;;;;;;;1.30;1.20;;;9.50;98.00;;;;;;5112672;28;20460;-60
2022/11/19 09:28:02;;;;;;;1.50;1.30;;;9.50;98.00;;;;;;5112459;28;20458;-60
2022/11/19 09:30:29;;;;;;;1.60;1.43;;;9.40;98.00;;;;;;5112326;28;20451;-60
2022/11/19 09:33:00;;;;;;;2.07;1.30;;;9.50;98.00;;;;;;5112252;28;20952;-60
2022/11/19 09:35:27;;;;;;;1.67;1.30;;;9.50;98.00;;;;;;5112239;28;20462;-60
2022/11/19 09:37:54;;;;;;;1.60;1.20;;;9.60;98.00;;;;;;5111666;28;20480;-60
2022/11/19 09:40:23;;;;;;;1.50;1.40;;;9.80;98.00;;;;;;5112274;28;20455;-60
2022/11/19 09:43:05;;;;;;;1.93;1.50;;;9.70;98.00;;;;;;5112537;28;20459;-60
2022/11/19 09:45:44;;;;;;;2.07;1.30;;;9.60;98.00;;;;;;5112178;28;20459;-60
2022/11/19 09:48:21;;;;;;;1.53;1.30;;;9.70;98.00;;;;;;5112238;28;20463;-60
2022/11/19 09:50:53;;;;;;;1.33;1.27;;;9.70;98.00;;;;;;5112072;28;20545;-60
2022/11/19 09:53:22;;;;;;;1.30;1.10;;;9.70;98.00;;;;;;5112299;28;20456;-61
2022/11/19 09:55:52;;;;;;;2.63;1.37;;;9.70;98.00;;;;;;5111861;28;20463;-60
2022/11/19 09:58:26;;;;;;;1.50;1.00;;;9.70;98.00;;;;;;5112032;28;20482;-60
2022/11/19 10:00:54;;;;;;;1.30;1.20;;;9.90;98.00;;;;;;5111779;28;20824;-61
2022/11/19 10:03:23;;;;;;;2.17;1.43;;;9.90;98.00;;;;;;5112028;28;20461;-60
2022/11/19 10:06:07;;;;;;;2.50;1.57;;;10.00;98.00;;;;;;5111878;28;20451;-61
2022/11/19 10:08:50;;;;;;;1.60;1.33;;;10.10;98.00;;;;;;5111929;28;20532;-61
2022/11/19 10:11:29;;;;;;;1.67;1.37;;;10.10;98.00;;;;;;5112095;28;20827;-60
2022/11/19 10:14:07;;;;;;;3.10;1.93;;;10.00;98.00;;;;;;5111783;28;20542;-60
2022/11/19 10:16:48;;;;;;;1.40;1.40;;;10.00;98.00;;;;;;5098337;28;20483;-61
2022/11/19 10:19:31;;;;;;;1.93;1.20;;;10.00;98.00;;;;;;5095726;28;20460;-61
2022/11/19 10:22:07;;;;;;;3.67;1.60;;;10.00;98.00;;;;;;5088746;28;21016;-61
2022/11/19 10:24:41;;;;;;;1.80;1.20;;;10.00;98.00;;;;;;5088671;28;20505;-60
2022/11/19 10:27:15;;;;;;;1.40;1.33;;;10.10;98.00;;;;;;5090929;28;20470;-60
2022/11/19 10:29:45;;;;;;;4.50;1.10;;;10.00;98.00;;;;;;5091444;28;20471;-60
2022/11/19 10:32:22;;;;;;;1.67;1.20;;;9.90;98.00;;;;;;5091547;28;20871;-60
2022/11/19 10:34:53;;;;;;;2.07;1.20;;;9.90;98.00;;;;;;5092039;28;20467;-61
2022/11/19 10:37:23;;;;;;;2.63;1.53;;;10.00;98.00;;;;;;5092210;28;20487;-60
2022/11/19 10:39:54;;;;;;;1.40;1.20;;;9.90;98.00;;;;;;5092032;28;20466;-61
2022/11/19 10:42:24;;;;;;;1.47;1.27;;;9.80;98.00;;;;;;5090874;28;20457;-60
2022/11/19 10:44:59;;;;;;;3.20;1.30;;;9.80;98.00;;;;;;5092139;28;20463;-60
2022/11/19 10:47:32;;;;;;;1.20;1.00;;;9.70;98.00;;;;;;5091059;28;20478;-60
2022/11/19 10:50:00;;;;;;;1.53;1.47;;;9.70;98.00;;;;;;5096241;28;20463;-60
2022/11/19 10:52:30;;;;;;;2.63;1.30;;;9.70;98.00;;;;;;5096304;28;20809;-60
2022/11/19 10:55:03;;;;;;;2.77;1.67;;;9.80;98.00;;;;;;5095977;28;20581;-61
2022/11/19 10:57:33;;;;;;;2.50;1.40;;;9.80;98.00;;;;;;5096035;28;20523;-60
2022/11/19 11:00:02;;;;;;;1.53;1.40;;;9.90;98.00;;;;;;5095811;28;20544;-61
2022/11/19 11:02:42;;;;;;;2.80;1.10;;;9.90;98.00;;;;;;5095931;28;20480;-61
2022/11/19 11:05:11;;;;;;;1.20;1.20;;;9.90;98.00;;;;;;5095843;28;20512;-60
2022/11/19 11:07:50;;;;;;;2.23;1.50;;;9.80;98.00;;;;;;5095755;28;21129;-60
2022/11/19 11:10:41;;;;;;;2.67;1.93;;;9.90;98.00;;;;;;5095421;28;20816;-60
2022/11/19 11:16:18;;;;;;;2.90;1.57;;;9.80;98.00;;;;;;5095221;28;20441;-60
2022/11/19 11:18:46;;;;;;;3.73;1.43;;;9.70;98.00;;;;;;5095853;28;20463;-60
2022/11/19 11:21:26;;;;;;;1.60;1.30;;;9.70;98.00;;;;;;5095848;28;21024;-60
2022/11/19 11:23:55;;;;;;;2.10;1.37;;;9.80;98.00;;;;;;5095884;28;20995;-61
2022/11/19 11:26:24;;;;;;;1.30;1.20;;;9.90;98.00;;;;;;5095842;28;20500;-60
2022/11/19 11:28:59;;;;;;;2.03;1.33;;;10.00;98.00;;;;;;5095781;28;20461;-60
2022/11/19 11:31:33;;;;;;;2.80;1.60;;;10.20;98.00;;;;;;5095310;28;20486;-60
2022/11/19 11:34:04;;;;;;;1.40;1.30;;;10.20;98.00;;;;;;5095457;28;20824;-60
2022/11/19 11:36:33;;;;;;;1.30;1.13;;;10.30;98.00;;;;;;5094089;28;20487;-60
2022/11/19 11:39:02;;;;;;;1.20;1.10;;;10.30;98.00;;;;;;5095105;28;20458;-60
2022/11/19 11:41:38;;;;;;;1.57;1.33;;;10.30;98.00;;;;;;5095216;28;20459;-60
2022/11/19 11:44:15;;;;;;;1.93;1.40;;;10.50;98.00;;;;;;5095171;28;20986;-61
2022/11/19 11:46:46;;;;;;;4.20;1.30;;;10.30;98.00;;;;;;5095091;28;20477;-60
2022/11/19 11:49:24;;;;;;;2.37;1.30;;;10.20;98.00;;;;;;5095065;28;20982;-60
2022/11/19 11:52:02;;;;;;;1.40;1.07;;;10.10;98.00;;;;;;5094881;28;20467;-61
2022/11/19 11:54:29;;;;;;;1.63;1.20;;;10.00;98.00;;;;;;5094973;28;20469;-61
2022/11/19 11:57:13;;;;;;;2.10;1.27;;;10.00;98.00;;;;;;5094838;28;20863;-61
2022/11/19 11:59:40;;;;;;;1.20;1.10;;;9.90;98.00;;;;;;5094130;28;20456;-60
2022/11/19 12:02:22;;;;;;;1.37;1.20;;;10.00;98.00;;;;;;5094765;28;20544;-60
2022/11/19 12:04:51;;;;;;;2.23;1.37;;;9.90;98.00;;;;;;5094775;28;20506;-60
2022/11/19 12:07:32;;;;;;;1.30;1.10;;;9.90;98.00;;;;;;5094719;28;20606;-60
2022/11/19 12:10:09;;;;;;;2.23;1.30;;;9.90;98.00;;;;;;5094754;28;20525;-60
2022/11/19 12:12:43;;;;;;;1.47;1.20;;;9.80;98.00;;;;;;5094875;28;20737;-60
2022/11/19 12:15:20;;;;;;;1.50;1.10;;;9.80;98.00;;;;;;5094627;28;20459;-60
2022/11/19 12:17:56;;;;;;;1.97;1.43;;;9.70;98.00;;;;;;5094716;28;20480;-60
2022/11/19 12:20:33;;;;;;;1.50;1.10;;;9.60;98.00;;;;;;5094613;28;20555;-61
2022/11/19 12:23:33;;;;;;;1.60;1.30;;;9.60;98.00;;;;;;5077563;28;20494;-60
2022/11/19 12:26:12;;;;;;;2.07;1.10;;;9.70;98.00;;;;;;5094340;28;20974;-61
2022/11/19 12:28:50;;;;;;;1.70;1.30;;;9.70;98.00;;;;;;5094191;28;20456;-61
2022/11/19 12:31:28;;;;;;;1.67;1.33;;;9.60;98.00;;;;;;5094211;28;20462;-60
2022/11/19 12:34:11;;;;;;;1.30;1.13;;;9.60;98.00;;;;;;5093954;28;20457;-60
2022/11/19 12:36:55;;;;;;;1.83;1.27;;;9.70;98.00;;;;;;5094199;28;20464;-60
2022/11/19 12:39:36;;;;;;;1.90;1.50;;;9.80;98.00;;;;;;5093972;28;20467;-61
2022/11/19 12:42:31;;;;;;;1.20;1.10;;;9.80;98.00;;;;;;5094229;28;20462;-61
2022/11/19 12:45:05;;;;;;;1.63;1.17;;;9.80;98.00;;;;;;5093925;28;20472;-60
2022/11/19 12:47:47;;;;;;;1.20;1.10;;;9.80;98.00;;;;;;5094205;28;20470;-60
2022/11/19 12:50:22;;;;;;;1.37;1.10;;;9.80;98.00;;;;;;5093738;28;20460;-60
2022/11/19 12:53:27;;;;;;;1.50;1.40;;;9.90;98.00;;;;;;5093841;28;20952;-60
2022/11/19 12:56:05;;;;;;;1.40;1.17;;;9.90;98.00;;;;;;5084498;28;20460;-60
2022/11/19 12:58:41;;;;;;;1.20;1.10;;;9.90;98.00;;;;;;5093875;28;20484;-60
2022/11/19 13:01:15;;;;;;;1.60;1.40;;;9.90;98.00;;;;;;5093531;28;20455;-61
2022/11/19 13:03:52;;;;;;;1.50;1.30;;;9.80;98.00;;;;;;5093784;28;20545;-61
2022/11/19 13:06:26;;;;;;;1.60;1.30;;;9.60;98.00;;;;;;5093716;28;20535;-60
2022/11/19 13:08:58;;;;;;;4.50;1.20;;;9.40;98.00;;;;;;5093752;28;20459;-60
2022/11/19 13:11:35;;;;;;;1.43;1.10;;;9.40;98.00;;;;;;5092616;28;20978;-60
2022/11/19 13:14:07;;;;;;;1.40;1.20;;;9.30;98.00;;;;;;5093477;28;20456;-60
2022/11/19 13:16:36;;;;;;;1.40;1.20;;;9.40;98.00;;;;;;5093477;28;20466;-60
2022/11/19 13:19:13;;;;;;;3.23;1.30;;;9.30;98.00;;;;;;5092195;28;20552;-60
2022/11/19 13:21:46;;;;;;;2.20;1.40;;;9.20;98.00;;;;;;5093186;28;20455;-60
2022/11/19 13:24:28;;;;;;;2.73;1.40;;;9.30;98.00;;;;;;5093146;28;20985;-60
2022/11/19 13:26:59;;;;;;;1.83;1.40;;;9.20;98.00;;;;;;5093128;28;20502;-60
2022/11/19 13:29:36;;;;;;;1.40;1.20;;;9.20;98.00;;;;;;5093133;28;20522;-60
2022/11/19 13:32:11;;;;;;;1.50;1.10;;;9.20;98.00;;;;;;5092935;28;20874;-60
2022/11/19 13:34:46;;;;;;;3.90;1.33;;;9.30;98.00;;;;;;5093091;28;20464;-60
2022/11/19 13:37:17;;;;;;;1.20;1.00;;;9.30;98.00;;;;;;5092963;28;20495;-60